sensor_id;sensor_type;location;lat;lon;timestamp;P1;durP1;ratioP1;P2;durP2;ratioP2
22634;SDS011;11484;50.858;4.384;2023-05-10T00:01:04;11.27;;;5.30;;
22634;SDS011;11484;50.858;4.384;2023-05-10T00:03:30;8.57;;;5.05;;
22634;SDS011;11484;50.858;4.384;2023-05-10T00:05:56;11.57;;;5.05;;
22634;SDS011;11484;50.858;4.384;2023-05-10T00:08:22;13.00;;;6.05;;
22634;SDS011;11484;50.858;4.384;2023-05-10T00:10:48;10.23;;;5.55;;
22634;SDS011;11484;50.858;4.384;2023-05-10T00:13:13;11.98;;;5.93;;
22634;SDS011;11484;50.858;4.384;2023-05-10T00:15:39;10.35;;;5.70;;
22634;SDS011;11484;50.858;4.384;2023-05-10T00:18:05;10.95;;;5.22;;
22634;SDS011;11484;50.858;4.384;2023-05-10T00:20:31;9.45;;;6.00;;
22634;SDS011;11484;50.858;4.384;2023-05-10T00:22:56;11.00;;;5.70;;
22634;SDS011;11484;50.858;4.384;2023-05-10T00:25:22;11.68;;;6.05;;
22634;SDS011;11484;50.858;4.384;2023-05-10T00:27:48;11.57;;;6.38;;
22634;SDS011;11484;50.858;4.384;2023-05-10T00:30:14;11.98;;;5.78;;
22634;SDS011;11484;50.858;4.384;2023-05-10T00:32:40;12.73;;;6.07;;
22634;SDS011;11484;50.858;4.384;2023-05-10T00:35:06;12.05;;;6.13;;
22634;SDS011;11484;50.858;4.384;2023-05-10T00:37:32;12.45;;;5.80;;
22634;SDS011;11484;50.858;4.384;2023-05-10T00:39:58;11.52;;;6.32;;
22634;SDS011;11484;50.858;4.384;2023-05-10T00:42:23;10.32;;;6.93;;
22634;SDS011;11484;50.858;4.384;2023-05-10T00:44:49;10.23;;;5.90;;
22634;SDS011;11484;50.858;4.384;2023-05-10T00:47:15;12.07;;;6.20;;
22634;SDS011;11484;50.858;4.384;2023-05-10T00:49:41;13.70;;;6.53;;
22634;SDS011;11484;50.858;4.384;2023-05-10T00:52:08;12.00;;;6.85;;
22634;SDS011;11484;50.858;4.384;2023-05-10T00:54:34;15.07;;;7.03;;
22634;SDS011;11484;50.858;4.384;2023-05-10T00:57:00;12.68;;;6.82;;
22634;SDS011;11484;50.858;4.384;2023-05-10T00:59:26;11.82;;;6.65;;
22634;SDS011;11484;50.858;4.384;2023-05-10T01:01:52;11.60;;;6.38;;
22634;SDS011;11484;50.858;4.384;2023-05-10T01:04:18;13.05;;;6.50;;
22634;SDS011;11484;50.858;4.384;2023-05-10T01:06:50;13.07;;;6.57;;
22634;SDS011;11484;50.858;4.384;2023-05-10T01:09:17;13.13;;;6.90;;
22634;SDS011;11484;50.858;4.384;2023-05-10T01:11:44;14.95;;;7.63;;
22634;SDS011;11484;50.858;4.384;2023-05-10T01:14:10;11.88;;;7.00;;
22634;SDS011;11484;50.858;4.384;2023-05-10T01:16:37;12.95;;;6.60;;
22634;SDS011;11484;50.858;4.384;2023-05-10T01:19:04;14.52;;;7.05;;
22634;SDS011;11484;50.858;4.384;2023-05-10T01:21:43;13.18;;;7.18;;
22634;SDS011;11484;50.858;4.384;2023-05-10T01:26:58;11.88;;;6.90;;
22634;SDS011;11484;50.858;4.384;2023-05-10T01:30:05;13.23;;;7.10;;
22634;SDS011;11484;50.858;4.384;2023-05-10T01:35:38;12.88;;;7.05;;
22634;SDS011;11484;50.858;4.384;2023-05-10T01:38:21;13.88;;;7.95;;
22634;SDS011;11484;50.858;4.384;2023-05-10T01:43:48;15.00;;;8.00;;
22634;SDS011;11484;50.858;4.384;2023-05-10T01:46:36;15.88;;;7.60;;
22634;SDS011;11484;50.858;4.384;2023-05-10T01:49:05;15.75;;;8.05;;
22634;SDS011;11484;50.858;4.384;2023-05-10T01:51:47;14.40;;;7.93;;
22634;SDS011;11484;50.858;4.384;2023-05-10T01:54:17;11.57;;;7.40;;
22634;SDS011;11484;50.858;4.384;2023-05-10T01:56:45;14.57;;;7.05;;
22634;SDS011;11484;50.858;4.384;2023-05-10T01:59:17;13.10;;;7.65;;
22634;SDS011;11484;50.858;4.384;2023-05-10T02:01:44;16.10;;;7.80;;
22634;SDS011;11484;50.858;4.384;2023-05-10T02:04:12;14.80;;;7.80;;
22634;SDS011;11484;50.858;4.384;2023-05-10T02:06:41;14.17;;;7.67;;
22634;SDS011;11484;50.858;4.384;2023-05-10T02:09:08;13.52;;;8.50;;
22634;SDS011;11484;50.858;4.384;2023-05-10T02:11:37;13.75;;;7.80;;
22634;SDS011;11484;50.858;4.384;2023-05-10T02:14:05;16.92;;;8.27;;
22634;SDS011;11484;50.858;4.384;2023-05-10T02:16:34;16.42;;;8.32;;
22634;SDS011;11484;50.858;4.384;2023-05-10T02:19:01;16.10;;;8.15;;
22634;SDS011;11484;50.858;4.384;2023-05-10T02:21:28;16.38;;;8.73;;
22634;SDS011;11484;50.858;4.384;2023-05-10T02:23:55;16.23;;;7.88;;
22634;SDS011;11484;50.858;4.384;2023-05-10T02:26:26;17.27;;;9.57;;
22634;SDS011;11484;50.858;4.384;2023-05-10T02:28:53;19.67;;;9.60;;
22634;SDS011;11484;50.858;4.384;2023-05-10T02:31:20;18.95;;;7.97;;
22634;SDS011;11484;50.858;4.384;2023-05-10T02:33:46;12.48;;;7.35;;
22634;SDS011;11484;50.858;4.384;2023-05-10T02:36:13;13.10;;;8.10;;
22634;SDS011;11484;50.858;4.384;2023-05-10T02:38:41;16.70;;;8.60;;
22634;SDS011;11484;50.858;4.384;2023-05-10T02:41:08;19.80;;;8.40;;
22634;SDS011;11484;50.858;4.384;2023-05-10T02:43:36;17.15;;;8.63;;
22634;SDS011;11484;50.858;4.384;2023-05-10T02:46:04;14.20;;;7.45;;
22634;SDS011;11484;50.858;4.384;2023-05-10T02:48:30;15.88;;;8.15;;
22634;SDS011;11484;50.858;4.384;2023-05-10T02:50:56;15.02;;;7.57;;
22634;SDS011;11484;50.858;4.384;2023-05-10T02:53:30;13.70;;;7.85;;
22634;SDS011;11484;50.858;4.384;2023-05-10T02:55:58;12.60;;;7.57;;
22634;SDS011;11484;50.858;4.384;2023-05-10T02:58:26;12.43;;;7.30;;
22634;SDS011;11484;50.858;4.384;2023-05-10T03:00:52;14.05;;;7.00;;
22634;SDS011;11484;50.858;4.384;2023-05-10T03:03:18;15.85;;;8.00;;
22634;SDS011;11484;50.858;4.384;2023-05-10T03:05:48;12.20;;;6.90;;
22634;SDS011;11484;50.858;4.384;2023-05-10T03:08:13;12.48;;;7.30;;
22634;SDS011;11484;50.858;4.384;2023-05-10T03:10:49;15.43;;;7.50;;
22634;SDS011;11484;50.858;4.384;2023-05-10T03:13:36;12.48;;;6.68;;
22634;SDS011;11484;50.858;4.384;2023-05-10T03:16:35;12.43;;;7.10;;
22634;SDS011;11484;50.858;4.384;2023-05-10T03:19:16;15.60;;;7.95;;
22634;SDS011;11484;50.858;4.384;2023-05-10T03:21:49;11.82;;;7.43;;
22634;SDS011;11484;50.858;4.384;2023-05-10T03:24:18;16.17;;;8.23;;
22634;SDS011;11484;50.858;4.384;2023-05-10T03:26:47;15.70;;;7.93;;
22634;SDS011;11484;50.858;4.384;2023-05-10T03:29:15;17.67;;;8.55;;
22634;SDS011;11484;50.858;4.384;2023-05-10T03:31:41;18.00;;;8.57;;
22634;SDS011;11484;50.858;4.384;2023-05-10T03:34:07;13.75;;;8.00;;
22634;SDS011;11484;50.858;4.384;2023-05-10T03:36:33;15.70;;;8.60;;
22634;SDS011;11484;50.858;4.384;2023-05-10T03:38:59;18.58;;;8.32;;
22634;SDS011;11484;50.858;4.384;2023-05-10T03:41:24;15.45;;;8.73;;
22634;SDS011;11484;50.858;4.384;2023-05-10T03:43:50;12.80;;;7.75;;
22634;SDS011;11484;50.858;4.384;2023-05-10T03:46:16;17.00;;;9.25;;
22634;SDS011;11484;50.858;4.384;2023-05-10T03:48:42;15.80;;;8.48;;
22634;SDS011;11484;50.858;4.384;2023-05-10T03:51:08;17.83;;;9.23;;
22634;SDS011;11484;50.858;4.384;2023-05-10T03:53:33;18.17;;;9.43;;
22634;SDS011;11484;50.858;4.384;2023-05-10T03:55:59;17.98;;;9.05;;
22634;SDS011;11484;50.858;4.384;2023-05-10T03:58:25;18.75;;;8.88;;
22634;SDS011;11484;50.858;4.384;2023-05-10T04:00:51;16.13;;;9.40;;
22634;SDS011;11484;50.858;4.384;2023-05-10T04:03:17;18.83;;;10.18;;
22634;SDS011;11484;50.858;4.384;2023-05-10T04:05:43;18.05;;;9.88;;
22634;SDS011;11484;50.858;4.384;2023-05-10T04:08:08;19.25;;;10.27;;
22634;SDS011;11484;50.858;4.384;2023-05-10T04:10:34;21.88;;;11.20;;
22634;SDS011;11484;50.858;4.384;2023-05-10T04:13:00;20.42;;;10.82;;
22634;SDS011;11484;50.858;4.384;2023-05-10T04:15:26;21.30;;;11.52;;
22634;SDS011;11484;50.858;4.384;2023-05-10T04:17:51;21.15;;;10.63;;
22634;SDS011;11484;50.858;4.384;2023-05-10T04:20:18;21.40;;;11.43;;
22634;SDS011;11484;50.858;4.384;2023-05-10T04:22:44;21.52;;;11.63;;
22634;SDS011;11484;50.858;4.384;2023-05-10T04:25:09;26.67;;;12.32;;
22634;SDS011;11484;50.858;4.384;2023-05-10T04:27:35;22.70;;;10.95;;
22634;SDS011;11484;50.858;4.384;2023-05-10T04:30:01;21.27;;;12.35;;
22634;SDS011;11484;50.858;4.384;2023-05-10T04:32:28;24.92;;;12.38;;
22634;SDS011;11484;50.858;4.384;2023-05-10T04:34:56;20.35;;;11.45;;
22634;SDS011;11484;50.858;4.384;2023-05-10T04:37:22;24.27;;;12.20;;
22634;SDS011;11484;50.858;4.384;2023-05-10T04:39:48;22.38;;;11.35;;
22634;SDS011;11484;50.858;4.384;2023-05-10T04:42:13;21.35;;;11.15;;
22634;SDS011;11484;50.858;4.384;2023-05-10T04:44:40;21.85;;;11.60;;
22634;SDS011;11484;50.858;4.384;2023-05-10T04:47:05;21.77;;;12.18;;
22634;SDS011;11484;50.858;4.384;2023-05-10T04:49:31;24.38;;;12.20;;
22634;SDS011;11484;50.858;4.384;2023-05-10T04:51:57;23.90;;;11.82;;
22634;SDS011;11484;50.858;4.384;2023-05-10T04:54:23;22.40;;;12.27;;
22634;SDS011;11484;50.858;4.384;2023-05-10T04:56:48;22.58;;;12.45;;
22634;SDS011;11484;50.858;4.384;2023-05-10T04:59:14;24.75;;;12.10;;
22634;SDS011;11484;50.858;4.384;2023-05-10T05:01:39;23.42;;;12.50;;
22634;SDS011;11484;50.858;4.384;2023-05-10T05:04:05;26.05;;;13.13;;
22634;SDS011;11484;50.858;4.384;2023-05-10T05:06:31;23.27;;;13.15;;
22634;SDS011;11484;50.858;4.384;2023-05-10T05:08:57;26.15;;;13.60;;
22634;SDS011;11484;50.858;4.384;2023-05-10T05:11:23;23.77;;;12.93;;
22634;SDS011;11484;50.858;4.384;2023-05-10T05:13:50;24.13;;;12.63;;
22634;SDS011;11484;50.858;4.384;2023-05-10T05:16:16;25.95;;;12.77;;
22634;SDS011;11484;50.858;4.384;2023-05-10T05:18:41;23.67;;;13.15;;
22634;SDS011;11484;50.858;4.384;2023-05-10T05:21:16;22.90;;;12.93;;
22634;SDS011;11484;50.858;4.384;2023-05-10T05:23:43;25.48;;;13.55;;
22634;SDS011;11484;50.858;4.384;2023-05-10T05:26:09;23.42;;;12.85;;
22634;SDS011;11484;50.858;4.384;2023-05-10T05:28:35;23.85;;;13.10;;
22634;SDS011;11484;50.858;4.384;2023-05-10T05:31:04;25.33;;;13.25;;
22634;SDS011;11484;50.858;4.384;2023-05-10T05:33:30;26.10;;;12.65;;
22634;SDS011;11484;50.858;4.384;2023-05-10T05:35:56;22.73;;;12.25;;
22634;SDS011;11484;50.858;4.384;2023-05-10T05:38:22;21.88;;;12.15;;
22634;SDS011;11484;50.858;4.384;2023-05-10T05:40:48;21.98;;;11.15;;
22634;SDS011;11484;50.858;4.384;2023-05-10T05:43:14;19.65;;;10.90;;
22634;SDS011;11484;50.858;4.384;2023-05-10T05:45:40;17.13;;;9.77;;
22634;SDS011;11484;50.858;4.384;2023-05-10T05:48:06;15.43;;;8.57;;
22634;SDS011;11484;50.858;4.384;2023-05-10T05:50:31;12.13;;;6.68;;
22634;SDS011;11484;50.858;4.384;2023-05-10T05:52:57;12.55;;;7.57;;
22634;SDS011;11484;50.858;4.384;2023-05-10T05:55:23;17.02;;;9.88;;
22634;SDS011;11484;50.858;4.384;2023-05-10T05:57:49;14.95;;;7.22;;
22634;SDS011;11484;50.858;4.384;2023-05-10T06:00:15;14.15;;;8.00;;
22634;SDS011;11484;50.858;4.384;2023-05-10T06:02:41;13.40;;;8.50;;
22634;SDS011;11484;50.858;4.384;2023-05-10T06:05:06;15.75;;;8.88;;
22634;SDS011;11484;50.858;4.384;2023-05-10T06:07:32;15.25;;;8.93;;
22634;SDS011;11484;50.858;4.384;2023-05-10T06:09:58;18.08;;;9.38;;
22634;SDS011;11484;50.858;4.384;2023-05-10T06:12:24;15.85;;;8.80;;
22634;SDS011;11484;50.858;4.384;2023-05-10T06:14:49;18.92;;;8.75;;
22634;SDS011;11484;50.858;4.384;2023-05-10T06:17:15;14.35;;;8.70;;
22634;SDS011;11484;50.858;4.384;2023-05-10T06:19:41;16.00;;;8.70;;
22634;SDS011;11484;50.858;4.384;2023-05-10T06:22:06;18.52;;;9.07;;
22634;SDS011;11484;50.858;4.384;2023-05-10T06:24:32;22.45;;;9.82;;
22634;SDS011;11484;50.858;4.384;2023-05-10T06:26:58;14.90;;;8.50;;
22634;SDS011;11484;50.858;4.384;2023-05-10T06:29:25;15.13;;;9.00;;
22634;SDS011;11484;50.858;4.384;2023-05-10T06:31:51;16.90;;;9.25;;
22634;SDS011;11484;50.858;4.384;2023-05-10T06:34:16;15.95;;;8.63;;
22634;SDS011;11484;50.858;4.384;2023-05-10T06:36:42;17.52;;;7.53;;
22634;SDS011;11484;50.858;4.384;2023-05-10T06:39:08;31.00;;;19.33;;
22634;SDS011;11484;50.858;4.384;2023-05-10T06:41:34;12.25;;;6.85;;
22634;SDS011;11484;50.858;4.384;2023-05-10T06:43:59;10.57;;;5.05;;
22634;SDS011;11484;50.858;4.384;2023-05-10T06:46:25;8.30;;;5.05;;
22634;SDS011;11484;50.858;4.384;2023-05-10T06:48:50;8.77;;;4.85;;
22634;SDS011;11484;50.858;4.384;2023-05-10T06:51:16;8.60;;;4.55;;
22634;SDS011;11484;50.858;4.384;2023-05-10T06:53:42;9.15;;;4.72;;
22634;SDS011;11484;50.858;4.384;2023-05-10T06:56:08;11.35;;;5.43;;
22634;SDS011;11484;50.858;4.384;2023-05-10T06:58:34;8.77;;;4.78;;
22634;SDS011;11484;50.858;4.384;2023-05-10T07:01:03;7.80;;;4.78;;
22634;SDS011;11484;50.858;4.384;2023-05-10T07:03:29;9.65;;;4.97;;
22634;SDS011;11484;50.858;4.384;2023-05-10T07:05:59;9.50;;;5.00;;
22634;SDS011;11484;50.858;4.384;2023-05-10T07:08:26;13.38;;;5.97;;
22634;SDS011;11484;50.858;4.384;2023-05-10T07:10:52;10.52;;;6.03;;
22634;SDS011;11484;50.858;4.384;2023-05-10T07:13:17;12.38;;;5.95;;
22634;SDS011;11484;50.858;4.384;2023-05-10T07:15:43;10.57;;;6.13;;
22634;SDS011;11484;50.858;4.384;2023-05-10T07:18:09;14.93;;;6.75;;
22634;SDS011;11484;50.858;4.384;2023-05-10T07:20:35;15.80;;;6.70;;
22634;SDS011;11484;50.858;4.384;2023-05-10T07:23:00;13.65;;;6.70;;
22634;SDS011;11484;50.858;4.384;2023-05-10T07:25:26;14.27;;;7.32;;
22634;SDS011;11484;50.858;4.384;2023-05-10T07:27:52;16.25;;;7.70;;
22634;SDS011;11484;50.858;4.384;2023-05-10T07:30:17;12.60;;;7.22;;
22634;SDS011;11484;50.858;4.384;2023-05-10T07:32:43;16.83;;;9.10;;
22634;SDS011;11484;50.858;4.384;2023-05-10T07:35:09;30.80;;;12.13;;
22634;SDS011;11484;50.858;4.384;2023-05-10T07:37:34;14.95;;;7.63;;
22634;SDS011;11484;50.858;4.384;2023-05-10T07:40:00;16.63;;;7.30;;
22634;SDS011;11484;50.858;4.384;2023-05-10T07:42:27;17.05;;;7.00;;
22634;SDS011;11484;50.858;4.384;2023-05-10T07:44:52;12.32;;;6.85;;
22634;SDS011;11484;50.858;4.384;2023-05-10T07:47:18;18.60;;;7.18;;
22634;SDS011;11484;50.858;4.384;2023-05-10T07:49:46;14.93;;;6.90;;
22634;SDS011;11484;50.858;4.384;2023-05-10T07:52:12;17.38;;;6.78;;
22634;SDS011;11484;50.858;4.384;2023-05-10T07:54:38;27.33;;;9.30;;
22634;SDS011;11484;50.858;4.384;2023-05-10T07:57:04;15.15;;;7.03;;
22634;SDS011;11484;50.858;4.384;2023-05-10T07:59:29;19.40;;;7.53;;
22634;SDS011;11484;50.858;4.384;2023-05-10T08:01:55;16.70;;;7.53;;
22634;SDS011;11484;50.858;4.384;2023-05-10T08:04:21;21.65;;;8.02;;
22634;SDS011;11484;50.858;4.384;2023-05-10T08:06:47;16.33;;;8.00;;
22634;SDS011;11484;50.858;4.384;2023-05-10T08:09:12;17.63;;;7.55;;
22634;SDS011;11484;50.858;4.384;2023-05-10T08:11:38;14.30;;;7.45;;
22634;SDS011;11484;50.858;4.384;2023-05-10T08:14:04;12.50;;;6.55;;
22634;SDS011;11484;50.858;4.384;2023-05-10T08:16:29;11.80;;;6.55;;
22634;SDS011;11484;50.858;4.384;2023-05-10T08:18:55;19.52;;;10.30;;
22634;SDS011;11484;50.858;4.384;2023-05-10T08:21:21;19.65;;;7.32;;
22634;SDS011;11484;50.858;4.384;2023-05-10T08:23:46;15.20;;;6.75;;
22634;SDS011;11484;50.858;4.384;2023-05-10T08:26:12;14.32;;;6.50;;
22634;SDS011;11484;50.858;4.384;2023-05-10T08:28:38;14.70;;;6.80;;
22634;SDS011;11484;50.858;4.384;2023-05-10T08:31:04;11.27;;;5.70;;
22634;SDS011;11484;50.858;4.384;2023-05-10T08:33:30;12.30;;;5.85;;
22634;SDS011;11484;50.858;4.384;2023-05-10T08:35:55;9.63;;;4.70;;
22634;SDS011;11484;50.858;4.384;2023-05-10T08:38:21;10.75;;;4.85;;
22634;SDS011;11484;50.858;4.384;2023-05-10T08:40:46;10.65;;;4.30;;
22634;SDS011;11484;50.858;4.384;2023-05-10T08:43:15;10.18;;;5.10;;
22634;SDS011;11484;50.858;4.384;2023-05-10T08:45:42;10.50;;;5.63;;
22634;SDS011;11484;50.858;4.384;2023-05-10T08:48:11;8.35;;;5.00;;
22634;SDS011;11484;50.858;4.384;2023-05-10T08:50:38;11.88;;;4.97;;
22634;SDS011;11484;50.858;4.384;2023-05-10T08:53:06;9.27;;;4.00;;
22634;SDS011;11484;50.858;4.384;2023-05-10T08:55:35;14.07;;;4.68;;
22634;SDS011;11484;50.858;4.384;2023-05-10T08:58:03;7.97;;;4.25;;
22634;SDS011;11484;50.858;4.384;2023-05-10T09:00:29;9.85;;;5.28;;
22634;SDS011;11484;50.858;4.384;2023-05-10T09:02:56;8.95;;;4.57;;
22634;SDS011;11484;50.858;4.384;2023-05-10T09:05:23;8.73;;;4.47;;
22634;SDS011;11484;50.858;4.384;2023-05-10T09:07:49;6.95;;;4.13;;
22634;SDS011;11484;50.858;4.384;2023-05-10T09:10:15;15.48;;;8.38;;
22634;SDS011;11484;50.858;4.384;2023-05-10T09:12:41;10.38;;;5.35;;
22634;SDS011;11484;50.858;4.384;2023-05-10T09:15:09;9.52;;;6.00;;
22634;SDS011;11484;50.858;4.384;2023-05-10T09:17:35;8.43;;;4.57;;
22634;SDS011;11484;50.858;4.384;2023-05-10T09:20:02;7.30;;;3.95;;
22634;SDS011;11484;50.858;4.384;2023-05-10T09:22:32;9.40;;;4.68;;
22634;SDS011;11484;50.858;4.384;2023-05-10T09:27:36;7.97;;;4.38;;
22634;SDS011;11484;50.858;4.384;2023-05-10T09:30:03;8.43;;;4.43;;
22634;SDS011;11484;50.858;4.384;2023-05-10T09:35:06;6.63;;;4.50;;
22634;SDS011;11484;50.858;4.384;2023-05-10T09:37:39;5.95;;;3.72;;
22634;SDS011;11484;50.858;4.384;2023-05-10T09:40:15;6.13;;;3.83;;
22634;SDS011;11484;50.858;4.384;2023-05-10T09:42:51;9.43;;;5.38;;
22634;SDS011;11484;50.858;4.384;2023-05-10T09:45:24;6.07;;;4.18;;
22634;SDS011;11484;50.858;4.384;2023-05-10T09:47:51;7.43;;;4.07;;
22634;SDS011;11484;50.858;4.384;2023-05-10T09:50:18;5.10;;;3.58;;
22634;SDS011;11484;50.858;4.384;2023-05-10T09:52:46;5.78;;;3.10;;
22634;SDS011;11484;50.858;4.384;2023-05-10T09:57:42;12.68;;;8.90;;
22634;SDS011;11484;50.858;4.384;2023-05-10T10:00:08;7.05;;;4.35;;
22634;SDS011;11484;50.858;4.384;2023-05-10T10:02:35;7.50;;;4.43;;
22634;SDS011;11484;50.858;4.384;2023-05-10T10:05:01;7.85;;;4.05;;
22634;SDS011;11484;50.858;4.384;2023-05-10T10:07:28;7.15;;;4.63;;
22634;SDS011;11484;50.858;4.384;2023-05-10T10:09:54;7.22;;;4.00;;
22634;SDS011;11484;50.858;4.384;2023-05-10T10:12:20;7.35;;;4.53;;
22634;SDS011;11484;50.858;4.384;2023-05-10T10:14:49;7.28;;;4.15;;
22634;SDS011;11484;50.858;4.384;2023-05-10T10:17:16;6.82;;;4.35;;
22634;SDS011;11484;50.858;4.384;2023-05-10T10:19:42;8.57;;;5.20;;
22634;SDS011;11484;50.858;4.384;2023-05-10T10:22:08;7.10;;;4.82;;
22634;SDS011;11484;50.858;4.384;2023-05-10T10:24:36;7.00;;;4.22;;
22634;SDS011;11484;50.858;4.384;2023-05-10T10:27:08;6.70;;;4.10;;
22634;SDS011;11484;50.858;4.384;2023-05-10T10:29:57;9.85;;;4.97;;
22634;SDS011;11484;50.858;4.384;2023-05-10T10:35:54;7.30;;;4.75;;
22634;SDS011;11484;50.858;4.384;2023-05-10T10:38:21;7.95;;;5.07;;
22634;SDS011;11484;50.858;4.384;2023-05-10T10:40:47;7.18;;;4.47;;
22634;SDS011;11484;50.858;4.384;2023-05-10T10:43:23;7.05;;;4.05;;
22634;SDS011;11484;50.858;4.384;2023-05-10T10:48:40;7.53;;;4.13;;
22634;SDS011;11484;50.858;4.384;2023-05-10T10:51:06;6.20;;;3.88;;
22634;SDS011;11484;50.858;4.384;2023-05-10T10:53:32;6.55;;;4.10;;
22634;SDS011;11484;50.858;4.384;2023-05-10T10:56:04;5.53;;;4.05;;
22634;SDS011;11484;50.858;4.384;2023-05-10T10:58:33;5.47;;;3.70;;
22634;SDS011;11484;50.858;4.384;2023-05-10T11:01:15;6.18;;;4.05;;
22634;SDS011;11484;50.858;4.384;2023-05-10T11:04:24;5.50;;;4.05;;
22634;SDS011;11484;50.858;4.384;2023-05-10T11:06:31;5.68;;;3.88;;
22634;SDS011;11484;50.858;4.384;2023-05-10T11:08:58;7.03;;;4.30;;
22634;SDS011;11484;50.858;4.384;2023-05-10T11:11:30;7.72;;;4.15;;
22634;SDS011;11484;50.858;4.384;2023-05-10T11:13:56;6.82;;;4.05;;
22634;SDS011;11484;50.858;4.384;2023-05-10T11:16:28;8.52;;;4.60;;
22634;SDS011;11484;50.858;4.384;2023-05-10T11:19:08;7.70;;;4.93;;
22634;SDS011;11484;50.858;4.384;2023-05-10T11:21:46;8.60;;;4.70;;
22634;SDS011;11484;50.858;4.384;2023-05-10T11:24:14;9.98;;;6.38;;
22634;SDS011;11484;50.858;4.384;2023-05-10T11:26:44;8.40;;;4.70;;
22634;SDS011;11484;50.858;4.384;2023-05-10T11:29:10;6.93;;;5.07;;
22634;SDS011;11484;50.858;4.384;2023-05-10T11:31:41;6.57;;;4.22;;
22634;SDS011;11484;50.858;4.384;2023-05-10T11:34:09;7.10;;;4.55;;
22634;SDS011;11484;50.858;4.384;2023-05-10T11:36:35;9.38;;;6.18;;
22634;SDS011;11484;50.858;4.384;2023-05-10T11:39:01;6.70;;;4.95;;
22634;SDS011;11484;50.858;4.384;2023-05-10T11:41:28;7.88;;;5.10;;
22634;SDS011;11484;50.858;4.384;2023-05-10T11:43:55;7.25;;;4.43;;
22634;SDS011;11484;50.858;4.384;2023-05-10T11:46:25;6.75;;;4.18;;
22634;SDS011;11484;50.858;4.384;2023-05-10T11:48:52;7.10;;;4.65;;
22634;SDS011;11484;50.858;4.384;2023-05-10T11:51:24;7.38;;;4.28;;
22634;SDS011;11484;50.858;4.384;2023-05-10T11:53:50;9.93;;;4.30;;
22634;SDS011;11484;50.858;4.384;2023-05-10T11:56:19;7.35;;;4.90;;
22634;SDS011;11484;50.858;4.384;2023-05-10T11:58:45;7.00;;;4.55;;
22634;SDS011;11484;50.858;4.384;2023-05-10T12:01:18;6.60;;;4.15;;
22634;SDS011;11484;50.858;4.384;2023-05-10T12:03:45;6.35;;;4.10;;
22634;SDS011;11484;50.858;4.384;2023-05-10T12:06:15;6.63;;;3.90;;
22634;SDS011;11484;50.858;4.384;2023-05-10T12:08:46;22.98;;;13.75;;
22634;SDS011;11484;50.858;4.384;2023-05-10T12:11:12;6.65;;;4.25;;
22634;SDS011;11484;50.858;4.384;2023-05-10T12:13:42;5.93;;;3.75;;
22634;SDS011;11484;50.858;4.384;2023-05-10T12:18:48;7.75;;;4.88;;
22634;SDS011;11484;50.858;4.384;2023-05-10T12:21:14;7.57;;;3.80;;
22634;SDS011;11484;50.858;4.384;2023-05-10T12:23:40;6.63;;;4.28;;
22634;SDS011;11484;50.858;4.384;2023-05-10T12:26:08;6.78;;;4.60;;
22634;SDS011;11484;50.858;4.384;2023-05-10T12:28:35;5.78;;;3.75;;
22634;SDS011;11484;50.858;4.384;2023-05-10T12:31:01;6.25;;;4.32;;
22634;SDS011;11484;50.858;4.384;2023-05-10T12:33:27;5.25;;;3.50;;
22634;SDS011;11484;50.858;4.384;2023-05-10T12:36:10;6.28;;;3.67;;
22634;SDS011;11484;50.858;4.384;2023-05-10T12:38:38;10.18;;;5.22;;
22634;SDS011;11484;50.858;4.384;2023-05-10T12:41:12;10.80;;;4.78;;
22634;SDS011;11484;50.858;4.384;2023-05-10T12:43:40;6.78;;;4.35;;
22634;SDS011;11484;50.858;4.384;2023-05-10T12:48:36;11.70;;;6.03;;
22634;SDS011;11484;50.858;4.384;2023-05-10T12:51:02;9.30;;;5.65;;
22634;SDS011;11484;50.858;4.384;2023-05-10T12:53:29;8.60;;;5.35;;
22634;SDS011;11484;50.858;4.384;2023-05-10T12:55:55;7.85;;;4.38;;
22634;SDS011;11484;50.858;4.384;2023-05-10T12:58:21;6.65;;;4.75;;
22634;SDS011;11484;50.858;4.384;2023-05-10T13:00:47;8.20;;;4.50;;
22634;SDS011;11484;50.858;4.384;2023-05-10T13:03:12;7.15;;;4.53;;
22634;SDS011;11484;50.858;4.384;2023-05-10T13:05:38;8.27;;;3.90;;
22634;SDS011;11484;50.858;4.384;2023-05-10T13:08:04;8.45;;;3.70;;
22634;SDS011;11484;50.858;4.384;2023-05-10T13:10:30;6.43;;;4.28;;
22634;SDS011;11484;50.858;4.384;2023-05-10T13:12:57;11.48;;;4.65;;
22634;SDS011;11484;50.858;4.384;2023-05-10T13:15:23;5.97;;;3.95;;
22634;SDS011;11484;50.858;4.384;2023-05-10T13:17:49;6.60;;;4.30;;
22634;SDS011;11484;50.858;4.384;2023-05-10T13:20:15;7.25;;;4.45;;
22634;SDS011;11484;50.858;4.384;2023-05-10T13:22:42;7.05;;;4.40;;
22634;SDS011;11484;50.858;4.384;2023-05-10T13:25:08;6.35;;;3.25;;
22634;SDS011;11484;50.858;4.384;2023-05-10T13:27:35;7.70;;;4.03;;
22634;SDS011;11484;50.858;4.384;2023-05-10T13:30:01;6.88;;;4.63;;
22634;SDS011;11484;50.858;4.384;2023-05-10T13:32:28;7.55;;;4.68;;
22634;SDS011;11484;50.858;4.384;2023-05-10T13:34:54;7.10;;;4.47;;
22634;SDS011;11484;50.858;4.384;2023-05-10T13:37:20;7.70;;;4.50;;
22634;SDS011;11484;50.858;4.384;2023-05-10T13:39:46;9.85;;;4.95;;
22634;SDS011;11484;50.858;4.384;2023-05-10T13:42:12;12.05;;;7.55;;
22634;SDS011;11484;50.858;4.384;2023-05-10T13:44:38;20.13;;;12.52;;
22634;SDS011;11484;50.858;4.384;2023-05-10T13:47:04;7.60;;;4.43;;
22634;SDS011;11484;50.858;4.384;2023-05-10T13:49:30;9.65;;;4.50;;
22634;SDS011;11484;50.858;4.384;2023-05-10T13:51:56;7.75;;;4.65;;
22634;SDS011;11484;50.858;4.384;2023-05-10T13:54:21;8.77;;;6.05;;
22634;SDS011;11484;50.858;4.384;2023-05-10T13:56:48;8.48;;;4.60;;
22634;SDS011;11484;50.858;4.384;2023-05-10T13:59:14;7.55;;;4.88;;
22634;SDS011;11484;50.858;4.384;2023-05-10T14:01:40;8.38;;;5.10;;
22634;SDS011;11484;50.858;4.384;2023-05-10T14:04:07;9.55;;;5.68;;
22634;SDS011;11484;50.858;4.384;2023-05-10T14:06:35;13.23;;;6.38;;
22634;SDS011;11484;50.858;4.384;2023-05-10T14:09:01;10.32;;;7.35;;
22634;SDS011;11484;50.858;4.384;2023-05-10T14:11:27;11.25;;;6.47;;
22634;SDS011;11484;50.858;4.384;2023-05-10T14:13:53;12.85;;;8.15;;
22634;SDS011;11484;50.858;4.384;2023-05-10T14:16:19;12.52;;;6.85;;
22634;SDS011;11484;50.858;4.384;2023-05-10T14:18:45;13.98;;;7.60;;
22634;SDS011;11484;50.858;4.384;2023-05-10T14:21:11;13.70;;;7.43;;
22634;SDS011;11484;50.858;4.384;2023-05-10T14:23:37;10.75;;;7.00;;
22634;SDS011;11484;50.858;4.384;2023-05-10T14:26:03;11.52;;;7.43;;
22634;SDS011;11484;50.858;4.384;2023-05-10T14:28:28;11.82;;;7.43;;
22634;SDS011;11484;50.858;4.384;2023-05-10T14:30:54;13.07;;;8.25;;
22634;SDS011;11484;50.858;4.384;2023-05-10T14:33:20;12.48;;;7.88;;
22634;SDS011;11484;50.858;4.384;2023-05-10T14:35:46;15.70;;;8.93;;
22634;SDS011;11484;50.858;4.384;2023-05-10T14:38:12;14.20;;;10.18;;
22634;SDS011;11484;50.858;4.384;2023-05-10T14:40:38;13.52;;;8.18;;
22634;SDS011;11484;50.858;4.384;2023-05-10T14:43:04;12.75;;;7.20;;
22634;SDS011;11484;50.858;4.384;2023-05-10T14:45:30;12.48;;;7.60;;
22634;SDS011;11484;50.858;4.384;2023-05-10T14:47:56;13.02;;;7.65;;
22634;SDS011;11484;50.858;4.384;2023-05-10T14:50:22;12.45;;;7.82;;
22634;SDS011;11484;50.858;4.384;2023-05-10T14:52:48;13.52;;;7.90;;
22634;SDS011;11484;50.858;4.384;2023-05-10T14:55:14;19.60;;;10.32;;
22634;SDS011;11484;50.858;4.384;2023-05-10T14:57:40;12.52;;;7.90;;
22634;SDS011;11484;50.858;4.384;2023-05-10T15:00:06;15.13;;;7.93;;
22634;SDS011;11484;50.858;4.384;2023-05-10T15:02:32;11.00;;;6.95;;
22634;SDS011;11484;50.858;4.384;2023-05-10T15:04:58;10.15;;;7.00;;
22634;SDS011;11484;50.858;4.384;2023-05-10T15:07:24;12.52;;;7.25;;